Time;durP1;ratioP1;P1;durP2;ratioP2;P2;SDS_P1;SDS_P2;PMS_P1;PMS_P2;Temp;Humidity;BMP_temperature;BMP_pressure;BME280_temperature;BME280_humidity;BME280_pressure;Samples;Min_cycle;Max_cycle;Signal;HPM_P1;HPM_P2
2022/07/26 00:02:11;;;;;;;0.00;0.00;;;;;;;;;;5038486;28;20361;-61
2022/07/26 00:04:37;;;;;;;0.00;0.00;;;;;;;;;;5037886;28;20360;-61
2022/07/26 00:07:07;;;;;;;0.00;0.00;;;;;;;;;;5038377;28;20718;-61
2022/07/26 00:09:35;;;;;;;0.00;0.00;;;;;;;;;;5040606;28;20717;-60
2022/07/26 00:12:01;;;;;;;0.00;0.00;;;;;;;;;;5039548;28;20040;-62
2022/07/26 00:14:38;;;;;;;0.03;0.03;;;;;;;;;;5038283;28;20021;-61
2022/07/26 00:17:06;;;;;;;0.00;0.00;;;;;;;;;;5037824;28;20684;-60
2022/07/26 00:19:40;;;;;;;0.25;0.25;;;;;;;;;;5038121;28;20025;-60
2022/07/26 00:24:49;;;;;;;0.00;0.00;;;;;;;;;;5038616;28;20040;-61
2022/07/26 00:27:14;;;;;;;0.00;0.00;;;;;;;;;;5038702;28;20021;-59
2022/07/26 00:29:39;;;;;;;0.00;0.00;;;;;;;;;;5038051;28;20057;-60
2022/07/26 00:32:05;;;;;;;0.00;0.00;;;;;;;;;;5038821;28;20370;-60
2022/07/26 00:34:36;;;;;;;0.00;0.00;;;;;;;;;;5038452;28;20040;-61
2022/07/26 00:37:04;;;;;;;1.05;1.00;;;;;;;;;;5039650;28;20601;-61
2022/07/26 00:39:32;;;;;;;0.00;0.00;;;;;;;;;;5038361;28;20483;-60
2022/07/26 00:41:57;;;;;;;0.00;0.00;;;;;;;;;;5038657;28;20108;-60
2022/07/26 00:44:22;;;;;;;0.00;0.00;;;;;;;;;;5038620;28;20113;-60
2022/07/26 00:46:48;;;;;;;0.63;0.63;;;;;;;;;;5036635;28;20366;-60
2022/07/26 00:49:28;;;;;;;0.00;0.00;;;;;;;;;;5038553;28;20381;-61
2022/07/26 00:51:53;;;;;;;0.00;0.00;;;;;;;;;;5037768;28;20543;-60
2022/07/26 00:54:18;;;;;;;0.00;0.00;;;;;;;;;;5038141;28;20025;-60
2022/07/26 00:56:47;;;;;;;0.00;0.00;;;;;;;;;;5036940;28;20075;-60
2022/07/26 00:59:12;;;;;;;0.00;0.00;;;;;;;;;;5038452;28;20725;-60
2022/07/26 01:01:37;;;;;;;0.00;0.00;;;;;;;;;;5038033;28;20029;-61
2022/07/26 01:04:03;;;;;;;0.00;0.00;;;;;;;;;;5038380;28;20053;-61
2022/07/26 01:06:28;;;;;;;0.00;0.00;;;;;;;;;;5043180;28;20017;-61
2022/07/26 01:08:53;;;;;;;0.00;0.00;;;;;;;;;;5041414;28;20084;-60
2022/07/26 01:11:19;;;;;;;0.00;0.00;;;;;;;;;;5042281;28;20020;-61
2022/07/26 01:13:45;;;;;;;0.00;0.00;;;;;;;;;;5041601;28;20351;-61
2022/07/26 01:16:10;;;;;;;0.00;0.00;;;;;;;;;;5041084;28;20029;-61
2022/07/26 01:18:35;;;;;;;0.00;0.00;;;;;;;;;;5025615;28;20071;-61
2022/07/26 01:21:01;;;;;;;0.00;0.00;;;;;;;;;;5039467;28;20336;-61
2022/07/26 01:23:26;;;;;;;1.20;1.20;;;;;;;;;;5037980;28;20022;-60
2022/07/26 01:25:51;;;;;;;0.00;0.00;;;;;;;;;;5040700;28;20028;-60
2022/07/26 01:28:17;;;;;;;0.00;0.00;;;;;;;;;;5040894;28;20301;-62
2022/07/26 01:30:42;;;;;;;0.00;0.00;;;;;;;;;;5040030;28;20051;-61
2022/07/26 01:33:11;;;;;;;0.00;0.00;;;;;;;;;;5040932;28;20029;-61
2022/07/26 01:35:36;;;;;;;0.00;0.00;;;;;;;;;;5043300;28;20033;-61
2022/07/26 01:38:01;;;;;;;0.00;0.00;;;;;;;;;;5041659;28;20017;-61
2022/07/26 01:40:26;;;;;;;0.00;0.00;;;;;;;;;;5040284;28;20259;-62
2022/07/26 01:42:51;;;;;;;0.00;0.00;;;;;;;;;;5039965;28;20025;-62
2022/07/26 01:45:17;;;;;;;0.00;0.00;;;;;;;;;;5038801;28;20451;-61
2022/07/26 01:47:43;;;;;;;0.00;0.00;;;;;;;;;;5040641;28;20017;-60
2022/07/26 01:50:09;;;;;;;0.00;0.00;;;;;;;;;;5041071;28;20021;-61
2022/07/26 01:52:34;;;;;;;0.00;0.00;;;;;;;;;;5041308;28;20020;-61
2022/07/26 01:55:02;;;;;;;0.00;0.00;;;;;;;;;;5041195;28;20021;-61
2022/07/26 01:57:28;;;;;;;0.00;0.00;;;;;;;;;;5039986;28;20657;-61
2022/07/26 01:59:56;;;;;;;0.00;0.00;;;;;;;;;;5039834;28;20036;-60
2022/07/26 02:02:21;;;;;;;0.00;0.00;;;;;;;;;;5041346;28;20048;-61
2022/07/26 02:04:58;;;;;;;0.00;0.00;;;;;;;;;;5041472;28;20389;-61
2022/07/26 02:07:47;;;;;;;0.00;0.00;;;;;;;;;;5040482;28;20253;-61
2022/07/26 02:10:13;;;;;;;0.00;0.00;;;;;;;;;;5042247;28;20025;-61
2022/07/26 02:12:38;;;;;;;0.00;0.00;;;;;;;;;;5020976;28;20559;-61
2022/07/26 02:15:06;;;;;;;0.00;0.00;;;;;;;;;;5038323;28;20034;-59
2022/07/26 02:17:32;;;;;;;0.00;0.00;;;;;;;;;;5035581;28;20450;-60
2022/07/26 02:19:57;;;;;;;0.00;0.00;;;;;;;;;;5037638;28;20136;-59
2022/07/26 02:22:22;;;;;;;0.00;0.00;;;;;;;;;;5037042;28;20053;-60
2022/07/26 02:24:51;;;;;;;1.48;1.48;;;;;;;;;;5039035;28;20259;-60
2022/07/26 02:27:16;;;;;;;0.00;0.00;;;;;;;;;;5036684;28;20067;-59
2022/07/26 02:29:42;;;;;;;0.00;0.00;;;;;;;;;;5037642;28;20065;-59
2022/07/26 02:32:08;;;;;;;0.00;0.00;;;;;;;;;;5037485;28;20025;-59
2022/07/26 02:34:36;;;;;;;0.00;0.00;;;;;;;;;;5038101;28;20065;-59
2022/07/26 02:37:04;;;;;;;0.00;0.00;;;;;;;;;;5036732;28;20048;-59
2022/07/26 02:39:29;;;;;;;0.00;0.00;;;;;;;;;;5037832;28;20424;-59
2022/07/26 02:41:55;;;;;;;0.00;0.00;;;;;;;;;;5039699;28;20079;-59
2022/07/26 02:44:21;;;;;;;0.00;0.00;;;;;;;;;;5040362;28;20439;-59
2022/07/26 02:46:46;;;;;;;0.00;0.00;;;;;;;;;;5039158;28;20049;-59
2022/07/26 02:49:12;;;;;;;0.00;0.00;;;;;;;;;;5037927;28;20017;-59
2022/07/26 02:51:37;;;;;;;0.00;0.00;;;;;;;;;;5035114;28;20017;-59
2022/07/26 02:54:02;;;;;;;0.00;0.00;;;;;;;;;;5038179;28;20724;-59
2022/07/26 02:56:28;;;;;;;0.00;0.00;;;;;;;;;;5039902;28;20325;-59
2022/07/26 02:58:53;;;;;;;0.00;0.00;;;;;;;;;;5034473;28;20029;-59
2022/07/26 03:01:18;;;;;;;0.00;0.00;;;;;;;;;;5035588;28;20036;-60
2022/07/26 03:03:44;;;;;;;0.00;0.00;;;;;;;;;;5028077;28;20087;-59
2022/07/26 03:06:09;;;;;;;0.00;0.00;;;;;;;;;;5019184;28;20050;-59
2022/07/26 03:08:49;;;;;;;0.00;0.00;;;;;;;;;;4983320;28;20050;-59
2022/07/26 03:11:14;;;;;;;0.00;0.00;;;;;;;;;;5026622;28;20356;-59
2022/07/26 03:13:39;;;;;;;0.00;0.00;;;;;;;;;;5024595;28;20256;-60
2022/07/26 03:16:08;;;;;;;0.00;0.00;;;;;;;;;;5022597;28;20106;-60
2022/07/26 03:18:33;;;;;;;0.00;0.00;;;;;;;;;;5021716;28;20049;-60
2022/07/26 03:20:58;;;;;;;0.00;0.00;;;;;;;;;;5021522;28;20367;-61
2022/07/26 03:23:23;;;;;;;0.00;0.00;;;;;;;;;;5023632;28;20022;-61
2022/07/26 03:25:51;;;;;;;0.00;0.00;;;;;;;;;;5024266;28;20029;-60
2022/07/26 03:28:16;;;;;;;0.00;0.00;;;;;;;;;;5020160;28;20048;-60
2022/07/26 03:30:42;;;;;;;0.00;0.00;;;;;;;;;;5019104;28;20030;-60
2022/07/26 03:33:07;;;;;;;0.00;0.00;;;;;;;;;;5016151;28;20277;-59
2022/07/26 03:35:32;;;;;;;0.00;0.00;;;;;;;;;;5022548;28;20026;-60
2022/07/26 03:38:00;;;;;;;0.00;0.00;;;;;;;;;;5020270;28;20029;-61
2022/07/26 03:40:25;;;;;;;0.00;0.00;;;;;;;;;;5021541;28;20045;-61
2022/07/26 03:42:51;;;;;;;0.00;0.00;;;;;;;;;;5022553;28;20424;-61
2022/07/26 03:45:19;;;;;;;0.00;0.00;;;;;;;;;;5017413;28;20368;-61
2022/07/26 03:47:45;;;;;;;0.00;0.00;;;;;;;;;;5023846;28;20018;-60
2022/07/26 03:50:12;;;;;;;0.00;0.00;;;;;;;;;;5024088;28;20437;-60
2022/07/26 03:52:38;;;;;;;0.00;0.00;;;;;;;;;;5022758;28;20435;-60
2022/07/26 03:56:27;;;;;;;0.30;0.30;;;;;;;;;;5022443;28;20108;-60
2022/07/26 03:57:48;;;;;;;0.00;0.00;;;;;;;;;;5014083;28;20077;-60
2022/07/26 04:00:14;;;;;;;0.00;0.00;;;;;;;;;;5019073;28;20029;-61
2022/07/26 04:02:39;;;;;;;0.00;0.00;;;;;;;;;;5019350;28;20659;-60
2022/07/26 04:05:04;;;;;;;0.00;0.00;;;;;;;;;;5017259;28;20813;-60
2022/07/26 04:07:30;;;;;;;0.00;0.00;;;;;;;;;;5022718;28;20028;-61
2022/07/26 04:09:55;;;;;;;0.00;0.00;;;;;;;;;;5018353;28;20030;-61
2022/07/26 04:12:20;;;;;;;0.00;0.00;;;;;;;;;;5018642;28;20968;-61
2022/07/26 04:14:45;;;;;;;0.00;0.00;;;;;;;;;;5022475;28;20318;-60
2022/07/26 04:17:10;;;;;;;0.00;0.00;;;;;;;;;;5022859;28;20327;-61
2022/07/26 04:19:35;;;;;;;0.00;0.00;;;;;;;;;;5023014;28;20253;-60
2022/07/26 04:22:07;;;;;;;0.00;0.00;;;;;;;;;;5022297;28;20349;-61
2022/07/26 04:24:35;;;;;;;0.00;0.00;;;;;;;;;;5019818;28;20291;-60
2022/07/26 04:27:00;;;;;;;0.00;0.00;;;;;;;;;;5019544;28;20029;-60
2022/07/26 04:29:25;;;;;;;0.00;0.00;;;;;;;;;;5022276;28;20052;-60
2022/07/26 04:31:53;;;;;;;0.00;0.00;;;;;;;;;;5012640;28;20272;-60
2022/07/26 04:34:24;;;;;;;0.00;0.00;;;;;;;;;;5023341;28;20400;-59
2022/07/26 04:36:50;;;;;;;0.00;0.00;;;;;;;;;;5019201;28;20470;-60
2022/07/26 04:39:15;;;;;;;0.00;0.00;;;;;;;;;;5017943;28;20153;-60
2022/07/26 04:41:40;;;;;;;0.00;0.00;;;;;;;;;;5023406;28;20021;-60
2022/07/26 04:44:05;;;;;;;0.00;0.00;;;;;;;;;;5020998;28;20027;-61
2022/07/26 04:46:33;;;;;;;0.00;0.00;;;;;;;;;;5024134;28;20268;-61
2022/07/26 04:48:59;;;;;;;0.00;0.00;;;;;;;;;;5021723;28;20021;-61
2022/07/26 04:51:25;;;;;;;0.00;0.00;;;;;;;;;;5021422;28;20089;-61
2022/07/26 04:53:53;;;;;;;0.00;0.00;;;;;;;;;;5025147;28;20072;-60
2022/07/26 04:56:18;;;;;;;0.00;0.00;;;;;;;;;;5023429;28;20033;-59
2022/07/26 04:58:43;;;;;;;0.00;0.00;;;;;;;;;;5024747;28;20068;-59
2022/07/26 05:01:08;;;;;;;0.20;0.20;;;;;;;;;;5020174;28;20775;-59
2022/07/26 05:03:36;;;;;;;0.00;0.00;;;;;;;;;;5034066;28;20398;-60
2022/07/26 05:06:02;;;;;;;0.00;0.00;;;;;;;;;;5040528;28;20271;-60
2022/07/26 05:08:29;;;;;;;0.00;0.00;;;;;;;;;;5038859;28;20030;-60
2022/07/26 05:10:54;;;;;;;0.00;0.00;;;;;;;;;;5038335;28;20264;-60
2022/07/26 05:13:20;;;;;;;0.00;0.00;;;;;;;;;;5042051;28;20017;-60
2022/07/26 05:15:45;;;;;;;0.00;0.00;;;;;;;;;;5043444;28;20267;-62
2022/07/26 05:18:10;;;;;;;0.00;0.00;;;;;;;;;;5039666;28;20494;-61
2022/07/26 05:20:36;;;;;;;0.00;0.00;;;;;;;;;;5038002;28;20447;-62
2022/07/26 05:23:01;;;;;;;0.00;0.00;;;;;;;;;;5041988;28;20013;-62
2022/07/26 05:25:29;;;;;;;0.00;0.00;;;;;;;;;;5039096;28;20033;-62
2022/07/26 05:27:55;;;;;;;0.00;0.00;;;;;;;;;;5041351;28;20444;-62
2022/07/26 05:30:20;;;;;;;0.00;0.00;;;;;;;;;;5042074;28;20021;-62
2022/07/26 05:32:48;;;;;;;0.00;0.00;;;;;;;;;;5038843;28;20021;-62
2022/07/26 05:35:14;;;;;;;0.00;0.00;;;;;;;;;;5039607;28;20026;-61
2022/07/26 05:37:39;;;;;;;0.00;0.00;;;;;;;;;;5037878;28;20078;-61
2022/07/26 05:40:05;;;;;;;0.00;0.00;;;;;;;;;;5040026;28;20028;-61
2022/07/26 05:42:30;;;;;;;0.00;0.00;;;;;;;;;;5035667;28;20123;-61
2022/07/26 05:44:55;;;;;;;0.00;0.00;;;;;;;;;;5038460;28;20060;-61
2022/07/26 05:47:20;;;;;;;0.00;0.00;;;;;;;;;;5039997;28;20351;-62
2022/07/26 05:49:52;;;;;;;0.00;0.00;;;;;;;;;;5039686;28;20105;-62
2022/07/26 05:52:19;;;;;;;0.00;0.00;;;;;;;;;;5039068;28;20021;-62
2022/07/26 05:54:45;;;;;;;0.00;0.00;;;;;;;;;;5039100;28;20029;-62
2022/07/26 05:57:10;;;;;;;0.00;0.00;;;;;;;;;;5041225;28;20017;-62
2022/07/26 05:59:38;;;;;;;4.23;2.63;;;;;;;;;;5041117;28;20737;-63
2022/07/26 06:02:09;;;;;;;0.00;0.00;;;;;;;;;;5039408;28;20786;-63
2022/07/26 06:04:34;;;;;;;0.00;0.00;;;;;;;;;;5039896;28;20050;-63
2022/07/26 06:06:59;;;;;;;0.00;0.00;;;;;;;;;;5038123;28;20394;-63
2022/07/26 06:09:25;;;;;;;0.00;0.00;;;;;;;;;;5041026;28;20041;-63
2022/07/26 06:11:51;;;;;;;0.00;0.00;;;;;;;;;;5040404;28;20044;-62
2022/07/26 06:14:19;;;;;;;0.00;0.00;;;;;;;;;;5040370;28;20416;-62
2022/07/26 06:16:45;;;;;;;0.00;0.00;;;;;;;;;;5040475;28;20071;-61
2022/07/26 06:19:13;;;;;;;0.00;0.00;;;;;;;;;;5020900;28;20024;-62
2022/07/26 06:21:38;;;;;;;0.00;0.00;;;;;;;;;;5038382;28;20569;-62
2022/07/26 06:24:04;;;;;;;0.00;0.00;;;;;;;;;;5041996;28;20060;-62
2022/07/26 06:26:29;;;;;;;0.00;0.00;;;;;;;;;;5036515;28;20049;-62
2022/07/26 06:28:54;;;;;;;0.00;0.00;;;;;;;;;;5038119;28;20029;-62
2022/07/26 06:31:19;;;;;;;20.27;5.07;;;;;;;;;;5041513;28;20271;-62
2022/07/26 06:33:45;;;;;;;0.00;0.00;;;;;;;;;;5035671;28;20088;-62
2022/07/26 06:36:10;;;;;;;0.00;0.00;;;;;;;;;;5035416;28;20021;-62
2022/07/26 06:38:35;;;;;;;0.00;0.00;;;;;;;;;;5036995;28;20461;-62
2022/07/26 06:41:06;;;;;;;0.00;0.00;;;;;;;;;;5039586;28;20048;-62
2022/07/26 06:43:34;;;;;;;2.95;2.75;;;;;;;;;;5036926;28;20267;-62
2022/07/26 06:46:00;;;;;;;0.38;0.10;;;;;;;;;;5035563;28;20447;-62
2022/07/26 06:48:26;;;;;;;0.10;0.10;;;;;;;;;;5039800;28;20040;-62
2022/07/26 06:50:54;;;;;;;2.95;1.00;;;;;;;;;;5038658;28;20467;-63
2022/07/26 06:53:19;;;;;;;0.00;0.00;;;;;;;;;;5041992;28;20017;-62
2022/07/26 06:55:44;;;;;;;0.00;0.00;;;;;;;;;;5039307;28;20024;-62
2022/07/26 06:58:12;;;;;;;0.00;0.00;;;;;;;;;;5037574;28;20256;-62
2022/07/26 07:00:40;;;;;;;0.00;0.00;;;;;;;;;;5039800;28;20021;-63
2022/07/26 07:03:05;;;;;;;0.00;0.00;;;;;;;;;;5036676;28;20402;-64
2022/07/26 07:05:31;;;;;;;0.10;0.10;;;;;;;;;;5038575;28;20062;-64
2022/07/26 07:08:01;;;;;;;0.00;0.00;;;;;;;;;;5036947;28;20522;-63
2022/07/26 07:10:32;;;;;;;0.00;0.00;;;;;;;;;;5037591;28;20284;-63
2022/07/26 07:12:58;;;;;;;0.00;0.00;;;;;;;;;;5036701;28;20022;-64
2022/07/26 07:15:25;;;;;;;0.98;0.95;;;;;;;;;;5038828;28;20033;-63
2022/07/26 07:17:53;;;;;;;0.00;0.00;;;;;;;;;;5037498;28;20461;-63
2022/07/26 07:20:25;;;;;;;0.00;0.00;;;;;;;;;;5044961;28;20017;-63
2022/07/26 07:22:50;;;;;;;0.00;0.00;;;;;;;;;;5037604;28;20462;-64
2022/07/26 07:25:21;;;;;;;0.00;0.00;;;;;;;;;;5040404;28;20098;-64
2022/07/26 07:27:46;;;;;;;0.00;0.00;;;;;;;;;;5037906;28;20312;-64
2022/07/26 07:30:18;;;;;;;0.00;0.00;;;;;;;;;;5039395;28;20033;-61
2022/07/26 07:32:43;;;;;;;0.00;0.00;;;;;;;;;;5038373;28;20721;-61
2022/07/26 07:35:08;;;;;;;0.00;0.00;;;;;;;;;;5034640;28;20026;-62
2022/07/26 07:37:36;;;;;;;0.00;0.00;;;;;;;;;;5038679;28;20494;-62
2022/07/26 07:40:05;;;;;;;0.00;0.00;;;;;;;;;;5037541;28;20474;-61
2022/07/26 07:42:30;;;;;;;;;;;;;;;;;;5038703;28;20076;-62
2022/07/26 07:44:55;;;;;;;0.00;0.00;;;;;;;;;;5035814;28;19960;-62
2022/07/26 07:47:21;;;;;;;0.00;0.00;;;;;;;;;;5037025;28;20653;-62
2022/07/26 07:49:46;;;;;;;0.00;0.00;;;;;;;;;;5035074;28;20124;-62
2022/07/26 07:52:11;;;;;;;0.00;0.00;;;;;;;;;;5036544;28;20020;-62
2022/07/26 07:54:36;;;;;;;0.00;0.00;;;;;;;;;;5037511;28;20033;-63
2022/07/26 07:57:01;;;;;;;2.17;0.30;;;;;;;;;;5037729;28;20283;-61
2022/07/26 07:59:29;;;;;;;0.00;0.00;;;;;;;;;;5038664;28;20268;-61
2022/07/26 08:01:55;;;;;;;0.00;0.00;;;;;;;;;;5041075;28;20276;-61
2022/07/26 08:04:20;;;;;;;0.00;0.00;;;;;;;;;;5038339;28;20037;-61
2022/07/26 08:06:48;;;;;;;0.53;0.53;;;;;;;;;;5039963;28;20366;-61
2022/07/26 08:09:13;;;;;;;0.00;0.00;;;;;;;;;;5041797;28;20461;-61
2022/07/26 08:11:38;;;;;;;0.00;0.00;;;;;;;;;;5039735;28;20112;-61
2022/07/26 08:14:07;;;;;;;0.00;0.00;;;;;;;;;;5036742;28;20288;-61
2022/07/26 08:16:32;;;;;;;0.00;0.00;;;;;;;;;;5041676;28;20346;-61
2022/07/26 08:19:00;;;;;;;0.00;0.00;;;;;;;;;;5030855;28;20125;-61
2022/07/26 08:21:25;;;;;;;0.00;0.00;;;;;;;;;;5036617;28;20033;-61
2022/07/26 08:23:50;;;;;;;0.00;0.00;;;;;;;;;;5038170;28;20064;-61
2022/07/26 08:26:16;;;;;;;0.00;0.00;;;;;;;;;;5042801;28;20260;-61
2022/07/26 08:28:41;;;;;;;0.00;0.00;;;;;;;;;;5037047;28;20029;-61
2022/07/26 08:31:06;;;;;;;0.00;0.00;;;;;;;;;;5041556;28;20271;-61
2022/07/26 08:33:31;;;;;;;0.00;0.00;;;;;;;;;;5038804;28;20264;-61
2022/07/26 08:35:59;;;;;;;0.00;0.00;;;;;;;;;;5041265;28;20025;-61
2022/07/26 08:38:28;;;;;;;0.75;0.75;;;;;;;;;;5036851;28;20443;-61
2022/07/26 08:40:57;;;;;;;0.00;0.00;;;;;;;;;;5033238;28;20025;-60
2022/07/26 08:43:25;;;;;;;0.00;0.00;;;;;;;;;;5034550;28;20055;-60
2022/07/26 08:45:53;;;;;;;0.00;0.00;;;;;;;;;;5038529;28;20021;-60
2022/07/26 08:48:18;;;;;;;0.00;0.00;;;;;;;;;;5039814;28;20454;-60
2022/07/26 08:50:43;;;;;;;0.10;0.10;;;;;;;;;;5037381;28;20053;-60
2022/07/26 08:53:10;;;;;;;0.00;0.00;;;;;;;;;;5039164;28;20347;-60
2022/07/26 08:55:36;;;;;;;0.00;0.00;;;;;;;;;;5038358;28;20164;-60
2022/07/26 08:58:02;;;;;;;0.00;0.00;;;;;;;;;;5036989;28;20093;-61
2022/07/26 09:00:31;;;;;;;0.25;0.25;;;;;;;;;;5037090;28;20025;-60
2022/07/26 09:03:00;;;;;;;0.00;0.00;;;;;;;;;;5034770;28;20068;-60
2022/07/26 09:05:29;;;;;;;0.00;0.00;;;;;;;;;;5041301;28;20052;-60
2022/07/26 09:07:55;;;;;;;0.00;0.00;;;;;;;;;;5036249;28;20496;-60
2022/07/26 09:10:21;;;;;;;0.00;0.00;;;;;;;;;;5040740;28;20378;-60
2022/07/26 09:12:56;;;;;;;0.00;0.00;;;;;;;;;;5042913;28;20013;-60
2022/07/26 09:15:27;;;;;;;0.00;0.00;;;;;;;;;;5039560;28;20108;-60
2022/07/26 09:17:54;;;;;;;0.00;0.00;;;;;;;;;;5042335;28;20116;-60
2022/07/26 09:20:24;;;;;;;0.00;0.00;;;;;;;;;;5038369;28;20028;-60
2022/07/26 09:23:06;;;;;;;0.00;0.00;;;;;;;;;;5033253;28;20028;-60
2022/07/26 09:25:33;;;;;;;0.00;0.00;;;;;;;;;;5040150;28;20022;-60
2022/07/26 09:28:02;;;;;;;0.13;0.13;;;;;;;;;;5036936;28;20024;-61
2022/07/26 09:30:31;;;;;;;0.00;0.00;;;;;;;;;;5042068;28;20369;-60
2022/07/26 09:33:00;;;;;;;0.00;0.00;;;;;;;;;;5040915;28;20402;-60
2022/07/26 09:35:25;;;;;;;0.00;0.00;;;;;;;;;;5045454;28;20028;-61
2022/07/26 09:37:53;;;;;;;0.00;0.00;;;;;;;;;;5041894;28;20029;-60
2022/07/26 09:40:19;;;;;;;0.00;0.00;;;;;;;;;;5043429;28;20621;-60
2022/07/26 09:43:00;;;;;;;0.00;0.00;;;;;;;;;;5039506;28;20108;-60
2022/07/26 09:45:26;;;;;;;0.00;0.00;;;;;;;;;;5041709;28;20087;-60
2022/07/26 09:47:51;;;;;;;0.03;0.03;;;;;;;;;;5040209;28;20033;-60
2022/07/26 09:50:17;;;;;;;0.00;0.00;;;;;;;;;;5041554;28;20032;-60
2022/07/26 09:53:02;;;;;;;0.00;0.00;;;;;;;;;;5042046;28;20093;-60
2022/07/26 09:55:30;;;;;;;0.00;0.00;;;;;;;;;;5041357;28;20038;-61
2022/07/26 09:57:56;;;;;;;0.00;0.00;;;;;;;;;;5043151;28;20063;-60
2022/07/26 10:00:21;;;;;;;0.00;0.00;;;;;;;;;;5042675;28;20033;-60
2022/07/26 10:02:46;;;;;;;0.00;0.00;;;;;;;;;;5041622;28;20041;-60
2022/07/26 10:05:11;;;;;;;0.00;0.00;;;;;;;;;;5039679;28;20041;-60
2022/07/26 10:07:37;;;;;;;0.00;0.00;;;;;;;;;;5044232;28;20074;-60
2022/07/26 10:10:04;;;;;;;0.00;0.00;;;;;;;;;;5041117;28;20291;-59
2022/07/26 10:12:31;;;;;;;0.00;0.00;;;;;;;;;;5041198;28;20013;-60
2022/07/26 10:14:59;;;;;;;0.00;0.00;;;;;;;;;;5038621;28;20029;-61
2022/07/26 10:17:28;;;;;;;0.00;0.00;;;;;;;;;;5043660;28;20680;-60
2022/07/26 10:20:03;;;;;;;0.00;0.00;;;;;;;;;;5043644;28;20032;-60
2022/07/26 10:22:32;;;;;;;11.75;1.35;;;;;;;;;;5040507;28;20037;-61
2022/07/26 10:25:18;;;;;;;0.00;0.00;;;;;;;;;;5044889;28;20025;-61
2022/07/26 10:27:49;;;;;;;0.00;0.00;;;;;;;;;;5024941;28;21688;-61
2022/07/26 10:30:17;;;;;;;0.00;0.00;;;;;;;;;;5040582;28;20078;-61
2022/07/26 10:33:04;;;;;;;0.00;0.00;;;;;;;;;;5043327;28;20028;-60
2022/07/26 10:35:30;;;;;;;0.00;0.00;;;;;;;;;;5041254;28;20033;-61
2022/07/26 10:37:57;;;;;;;0.00;0.00;;;;;;;;;;5036114;28;20034;-61
2022/07/26 10:40:24;;;;;;;0.00;0.00;;;;;;;;;;5036513;28;20447;-59
2022/07/26 10:42:49;;;;;;;0.00;0.00;;;;;;;;;;5041881;28;20025;-60
2022/07/26 10:45:15;;;;;;;0.00;0.00;;;;;;;;;;5040942;28;20024;-60
2022/07/26 10:48:00;;;;;;;0.00;0.00;;;;;;;;;;5045077;28;20119;-59
2022/07/26 10:50:32;;;;;;;0.00;0.00;;;;;;;;;;5039069;28;20029;-59
2022/07/26 10:52:57;;;;;;;0.00;0.00;;;;;;;;;;5033859;28;20013;-60
2022/07/26 10:55:23;;;;;;;0.35;0.35;;;;;;;;;;5044622;28;20021;-60
2022/07/26 10:57:48;;;;;;;0.00;0.00;;;;;;;;;;5039069;28;20411;-59
2022/07/26 11:00:18;;;;;;;0.00;0.00;;;;;;;;;;5041400;28;20763;-59
2022/07/26 11:02:47;;;;;;;0.00;0.00;;;;;;;;;;5043206;28;20045;-59
2022/07/26 11:05:12;;;;;;;;;;;;;;;;;;5028281;28;20045;-60
2022/07/26 11:08:03;;;;;;;0.00;0.00;;;;;;;;;;5021956;28;19910;-60
2022/07/26 11:10:33;;;;;;;0.00;0.00;;;;;;;;;;5026231;28;20060;-60
2022/07/26 11:12:58;;;;;;;0.00;0.00;;;;;;;;;;5025198;28;20025;-60
2022/07/26 11:15:26;;;;;;;0.00;0.00;;;;;;;;;;5026009;28;20024;-60
2022/07/26 11:18:04;;;;;;;0.00;0.00;;;;;;;;;;5026648;28;20753;-60
2022/07/26 11:20:29;;;;;;;0.00;0.00;;;;;;;;;;5026147;28;20486;-60
2022/07/26 11:22:54;;;;;;;0.00;0.00;;;;;;;;;;5022349;28;20030;-60
2022/07/26 11:25:20;;;;;;;0.00;0.00;;;;;;;;;;5025002;28;20025;-60
2022/07/26 11:28:02;;;;;;;0.00;0.00;;;;;;;;;;5027655;28;20264;-60
2022/07/26 11:30:27;;;;;;;0.00;0.00;;;;;;;;;;5022425;28;20536;-60
2022/07/26 11:32:59;;;;;;;0.00;0.00;;;;;;;;;;5024560;28;20021;-60
2022/07/26 11:35:25;;;;;;;0.00;0.00;;;;;;;;;;5021555;28;20030;-60
2022/07/26 11:37:55;;;;;;;0.00;0.00;;;;;;;;;;5027428;28;20026;-60
2022/07/26 11:40:38;;;;;;;0.45;0.28;;;;;;;;;;5026291;28;20164;-60
2022/07/26 11:43:04;;;;;;;0.00;0.00;;;;;;;;;;5018360;28;20371;-60
2022/07/26 11:45:32;;;;;;;0.00;0.00;;;;;;;;;;5021638;28;20032;-60
2022/07/26 11:47:57;;;;;;;0.00;0.00;;;;;;;;;;5023097;28;20271;-60
2022/07/26 11:50:25;;;;;;;0.00;0.00;;;;;;;;;;5025950;28;20021;-60
2022/07/26 11:52:51;;;;;;;0.00;0.00;;;;;;;;;;5031370;28;20105;-60
2022/07/26 11:55:26;;;;;;;0.00;0.00;;;;;;;;;;5022625;28;20108;-60
2022/07/26 11:57:51;;;;;;;0.00;0.00;;;;;;;;;;5021920;28;20458;-60
2022/07/26 12:00:17;;;;;;;0.00;0.00;;;;;;;;;;5026155;28;20104;-60
2022/07/26 12:02:42;;;;;;;0.00;0.00;;;;;;;;;;5027490;28;20077;-60
2022/07/26 12:05:18;;;;;;;0.00;0.00;;;;;;;;;;5035960;28;20369;-60
2022/07/26 12:07:55;;;;;;;0.00;0.00;;;;;;;;;;5033135;28;20021;-60
2022/07/26 12:10:21;;;;;;;0.00;0.00;;;;;;;;;;5035231;28;20029;-60
2022/07/26 12:12:49;;;;;;;0.00;0.00;;;;;;;;;;5037822;28;20036;-60
2022/07/26 12:15:17;;;;;;;0.00;0.00;;;;;;;;;;5028736;28;20022;-60
2022/07/26 12:17:58;;;;;;;0.00;0.00;;;;;;;;;;5038609;28;20076;-60
2022/07/26 12:20:26;;;;;;;0.00;0.00;;;;;;;;;;5032760;28;20025;-60
2022/07/26 12:23:04;;;;;;;0.30;0.30;;;;;;;;;;5044286;28;20041;-60
2022/07/26 12:25:30;;;;;;;0.10;0.07;;;;;;;;;;5044788;28;20018;-60
2022/07/26 12:27:55;;;;;;;0.10;0.10;;;;;;;;;;5030717;28;20462;-60
2022/07/26 12:30:20;;;;;;;0.70;0.43;;;;;;;;;;5043426;28;20040;-60
2022/07/26 12:32:50;;;;;;;0.57;0.08;;;;;;;;;;5037400;28;20084;-60
2022/07/26 12:35:28;;;;;;;0.00;0.00;;;;;;;;;;5042552;28;20444;-60
2022/07/26 12:37:54;;;;;;;0.10;0.00;;;;;;;;;;5040644;28;20041;-60
2022/07/26 12:40:23;;;;;;;0.00;0.00;;;;;;;;;;5036722;28;20036;-60
2022/07/26 12:42:48;;;;;;;0.00;0.00;;;;;;;;;;5040398;28;20405;-60
2022/07/26 12:45:14;;;;;;;0.00;0.00;;;;;;;;;;5046243;28;20029;-60
2022/07/26 12:47:41;;;;;;;0.00;0.00;;;;;;;;;;5044991;28;20021;-60
2022/07/26 12:50:07;;;;;;;0.00;0.00;;;;;;;;;;5040561;28;20029;-60
2022/07/26 12:52:32;;;;;;;0.00;0.00;;;;;;;;;;5035098;28;20466;-60
2022/07/26 12:54:58;;;;;;;0.00;0.00;;;;;;;;;;5035810;28;20073;-60
2022/07/26 12:57:24;;;;;;;0.00;0.00;;;;;;;;;;5034418;28;20074;-60
2022/07/26 12:59:49;;;;;;;0.00;0.00;;;;;;;;;;5032841;28;20381;-60
2022/07/26 13:02:17;;;;;;;0.00;0.00;;;;;;;;;;5029116;28;20494;-60
2022/07/26 13:04:43;;;;;;;0.00;0.00;;;;;;;;;;5040227;28;20081;-60
2022/07/26 13:07:08;;;;;;;0.00;0.00;;;;;;;;;;5040768;28;20123;-60
2022/07/26 13:09:34;;;;;;;0.00;0.00;;;;;;;;;;5047177;28;20025;-60
2022/07/26 13:12:00;;;;;;;0.00;0.00;;;;;;;;;;5037722;28;20013;-60
2022/07/26 13:14:25;;;;;;;0.00;0.00;;;;;;;;;;5046437;28;20025;-61
2022/07/26 13:16:51;;;;;;;0.00;0.00;;;;;;;;;;5041886;28;20029;-60
2022/07/26 13:19:19;;;;;;;0.00;0.00;;;;;;;;;;5036829;28;20079;-60
2022/07/26 13:21:44;;;;;;;0.00;0.00;;;;;;;;;;5043320;28;20048;-60
2022/07/26 13:24:09;;;;;;;0.00;0.00;;;;;;;;;;5046209;28;20115;-60
2022/07/26 13:26:35;;;;;;;0.00;0.00;;;;;;;;;;5043269;28;20017;-60
2022/07/26 13:29:00;;;;;;;0.00;0.00;;;;;;;;;;5045243;28;20107;-60
2022/07/26 13:31:28;;;;;;;0.13;0.13;;;;;;;;;;5044161;28;20484;-60
2022/07/26 13:33:53;;;;;;;0.00;0.00;;;;;;;;;;5046283;28;20538;-60
2022/07/26 13:36:21;;;;;;;0.00;0.00;;;;;;;;;;5039396;28;20045;-60
2022/07/26 13:38:46;;;;;;;0.00;0.00;;;;;;;;;;5037778;28;20039;-60
2022/07/26 13:41:12;;;;;;;0.00;0.00;;;;;;;;;;5042694;28;20385;-60
2022/07/26 13:43:37;;;;;;;0.52;0.52;;;;;;;;;;5053653;28;20731;-60
2022/07/26 13:46:02;;;;;;;0.00;0.00;;;;;;;;;;5040167;28;20440;-60
2022/07/26 13:48:30;;;;;;;0.00;0.00;;;;;;;;;;5042775;28;20026;-60
2022/07/26 13:50:56;;;;;;;0.00;0.00;;;;;;;;;;5047941;28;20481;-60
2022/07/26 13:53:22;;;;;;;0.00;0.00;;;;;;;;;;5046819;28;20029;-60
2022/07/26 13:55:47;;;;;;;0.00;0.00;;;;;;;;;;5052040;28;20013;-60
2022/07/26 13:58:12;;;;;;;0.00;0.00;;;;;;;;;;5044044;28;20022;-59
2022/07/26 14:00:39;;;;;;;0.00;0.00;;;;;;;;;;5043165;28;20267;-59
2022/07/26 14:03:04;;;;;;;0.22;0.22;;;;;;;;;;5041069;28;20134;-60
2022/07/26 14:05:29;;;;;;;0.65;0.17;;;;;;;;;;5045010;28;20037;-60
2022/07/26 14:07:55;;;;;;;0.05;0.05;;;;;;;;;;5041159;28;20023;-60
2022/07/26 14:10:20;;;;;;;0.30;0.30;;;;;;;;;;5039459;28;20069;-61
2022/07/26 14:12:46;;;;;;;0.00;0.00;;;;;;;;;;5032062;28;20026;-61
2022/07/26 14:15:12;;;;;;;0.00;0.00;;;;;;;;;;5036885;28;20021;-61
2022/07/26 14:17:37;;;;;;;0.08;0.08;;;;;;;;;;5035640;28;20355;-60
2022/07/26 14:20:03;;;;;;;0.00;0.00;;;;;;;;;;5037632;28;20013;-61
2022/07/26 14:22:28;;;;;;;0.10;0.10;;;;;;;;;;5044652;28;20108;-61
2022/07/26 14:24:54;;;;;;;0.00;0.00;;;;;;;;;;5047807;28;20414;-61
2022/07/26 14:27:19;;;;;;;0.00;0.00;;;;;;;;;;5045657;28;20022;-61
2022/07/26 14:29:45;;;;;;;0.00;0.00;;;;;;;;;;5037561;28;20099;-61
2022/07/26 14:32:10;;;;;;;0.08;0.08;;;;;;;;;;5043768;28;20724;-61
2022/07/26 14:34:36;;;;;;;0.00;0.00;;;;;;;;;;5043738;28;20020;-60
2022/07/26 14:37:04;;;;;;;0.00;0.00;;;;;;;;;;5053565;28;20029;-60
2022/07/26 14:39:35;;;;;;;0.17;0.17;;;;;;;;;;5050795;28;20450;-60
2022/07/26 14:42:03;;;;;;;0.00;0.00;;;;;;;;;;5029580;28;20028;-60
2022/07/26 14:44:28;;;;;;;1.40;1.40;;;;;;;;;;5055046;28;20021;-60
2022/07/26 14:46:53;;;;;;;0.00;0.00;;;;;;;;;;5047012;28;20078;-60